sensor_id;sensor_type;location;lat;lon;timestamp;temperature;humidity
28947;DHT22;16052;50.930;5.326;2022-08-19T00:00:17;23.90;19.10
28947;DHT22;16052;50.930;5.326;2022-08-19T00:02:43;23.80;23.50
28947;DHT22;16052;50.930;5.326;2022-08-19T00:05:10;23.60;29.00
28947;DHT22;16052;50.930;5.326;2022-08-19T00:07:36;23.50;28.10
28947;DHT22;16052;50.930;5.326;2022-08-19T00:10:04;23.50;29.90
28947;DHT22;16052;50.930;5.326;2022-08-19T00:12:30;23.40;32.70
28947;DHT22;16052;50.930;5.326;2022-08-19T00:14:56;23.30;37.50
28947;DHT22;16052;50.930;5.326;2022-08-19T00:17:21;23.30;39.00
28947;DHT22;16052;50.930;5.326;2022-08-19T00:19:47;23.40;37.90
28947;DHT22;16052;50.930;5.326;2022-08-19T00:22:13;23.40;34.90
28947;DHT22;16052;50.930;5.326;2022-08-19T00:24:39;23.50;31.10
28947;DHT22;16052;50.930;5.326;2022-08-19T00:27:06;23.60;29.40
28947;DHT22;16052;50.930;5.326;2022-08-19T00:29:32;23.60;29.40
28947;DHT22;16052;50.930;5.326;2022-08-19T00:31:57;23.50;30.00
28947;DHT22;16052;50.930;5.326;2022-08-19T00:34:25;23.40;32.10
28947;DHT22;16052;50.930;5.326;2022-08-19T00:36:54;23.30;35.40
28947;DHT22;16052;50.930;5.326;2022-08-19T00:39:19;23.10;40.70
28947;DHT22;16052;50.930;5.326;2022-08-19T00:41:46;23.30;37.60
28947;DHT22;16052;50.930;5.326;2022-08-19T00:44:20;23.30;35.20
28947;DHT22;16052;50.930;5.326;2022-08-19T00:46:48;23.10;41.70
28947;DHT22;16052;50.930;5.326;2022-08-19T00:49:39;23.20;41.30
28947;DHT22;16052;50.930;5.326;2022-08-19T00:52:12;22.90;47.40
28947;DHT22;16052;50.930;5.326;2022-08-19T00:54:40;22.70;58.20
28947;DHT22;16052;50.930;5.326;2022-08-19T00:57:09;22.70;59.90
28947;DHT22;16052;50.930;5.326;2022-08-19T00:59:37;22.80;56.80
28947;DHT22;16052;50.930;5.326;2022-08-19T01:02:04;22.90;50.40
28947;DHT22;16052;50.930;5.326;2022-08-19T01:04:29;23.10;41.90
28947;DHT22;16052;50.930;5.326;2022-08-19T01:06:56;23.30;37.40
28947;DHT22;16052;50.930;5.326;2022-08-19T01:09:22;23.00;41.00
28947;DHT22;16052;50.930;5.326;2022-08-19T01:11:48;22.80;48.90
28947;DHT22;16052;50.930;5.326;2022-08-19T01:14:15;22.80;49.80
28947;DHT22;16052;50.930;5.326;2022-08-19T01:16:42;22.70;51.80
28947;DHT22;16052;50.930;5.326;2022-08-19T01:19:29;22.60;55.20
28947;DHT22;16052;50.930;5.326;2022-08-19T01:24:30;22.30;65.00
28947;DHT22;16052;50.930;5.326;2022-08-19T01:26:56;22.10;69.80
28947;DHT22;16052;50.930;5.326;2022-08-19T01:29:22;21.90;77.50
28947;DHT22;16052;50.930;5.326;2022-08-19T01:31:48;21.80;83.60
28947;DHT22;16052;50.930;5.326;2022-08-19T01:34:14;21.70;87.70
28947;DHT22;16052;50.930;5.326;2022-08-19T01:36:45;21.60;90.60
28947;DHT22;16052;50.930;5.326;2022-08-19T01:39:20;21.60;90.90
28947;DHT22;16052;50.930;5.326;2022-08-19T01:41:47;21.70;89.30
28947;DHT22;16052;50.930;5.326;2022-08-19T01:44:13;21.60;86.90
28947;DHT22;16052;50.930;5.326;2022-08-19T01:46:39;21.50;88.10
28947;DHT22;16052;50.930;5.326;2022-08-19T01:49:06;21.40;91.90
28947;DHT22;16052;50.930;5.326;2022-08-19T01:51:33;21.40;92.60
28947;DHT22;16052;50.930;5.326;2022-08-19T01:53:59;21.30;92.80
28947;DHT22;16052;50.930;5.326;2022-08-19T01:56:26;21.40;91.40
28947;DHT22;16052;50.930;5.326;2022-08-19T01:58:56;21.40;91.20
28947;DHT22;16052;50.930;5.326;2022-08-19T02:01:23;21.50;90.10
28947;DHT22;16052;50.930;5.326;2022-08-19T02:03:49;21.50;88.70
28947;DHT22;16052;50.930;5.326;2022-08-19T02:06:14;21.50;87.50
28947;DHT22;16052;50.930;5.326;2022-08-19T02:08:42;21.50;86.50
28947;DHT22;16052;50.930;5.326;2022-08-19T02:11:20;21.40;89.20
28947;DHT22;16052;50.930;5.326;2022-08-19T02:13:46;21.50;89.20
28947;DHT22;16052;50.930;5.326;2022-08-19T02:16:12;21.50;86.60
28947;DHT22;16052;50.930;5.326;2022-08-19T02:18:38;21.40;88.80
28947;DHT22;16052;50.930;5.326;2022-08-19T02:21:03;21.40;87.40
28947;DHT22;16052;50.930;5.326;2022-08-19T02:23:29;21.40;86.70
28947;DHT22;16052;50.930;5.326;2022-08-19T02:25:54;21.40;86.80
28947;DHT22;16052;50.930;5.326;2022-08-19T02:28:21;21.50;81.70
28947;DHT22;16052;50.930;5.326;2022-08-19T02:30:48;21.50;81.10
28947;DHT22;16052;50.930;5.326;2022-08-19T02:33:13;21.40;85.20
28947;DHT22;16052;50.930;5.326;2022-08-19T02:35:46;21.30;85.60
28947;DHT22;16052;50.930;5.326;2022-08-19T02:38:12;21.50;81.30
28947;DHT22;16052;50.930;5.326;2022-08-19T02:41:00;21.50;81.70
28947;DHT22;16052;50.930;5.326;2022-08-19T02:43:26;21.50;80.20
28947;DHT22;16052;50.930;5.326;2022-08-19T02:45:53;21.60;77.40
28947;DHT22;16052;50.930;5.326;2022-08-19T02:48:21;21.50;79.40
28947;DHT22;16052;50.930;5.326;2022-08-19T02:50:49;21.30;85.70
28947;DHT22;16052;50.930;5.326;2022-08-19T02:53:21;21.20;87.70
28947;DHT22;16052;50.930;5.326;2022-08-19T02:55:48;21.10;91.50
28947;DHT22;16052;50.930;5.326;2022-08-19T02:58:15;21.00;92.30
28947;DHT22;16052;50.930;5.326;2022-08-19T03:00:45;20.90;94.20
28947;DHT22;16052;50.930;5.326;2022-08-19T03:03:11;20.90;95.90
28947;DHT22;16052;50.930;5.326;2022-08-19T03:05:37;20.80;95.70
28947;DHT22;16052;50.930;5.326;2022-08-19T03:08:03;20.70;98.20
28947;DHT22;16052;50.930;5.326;2022-08-19T03:10:29;20.50;99.90
28947;DHT22;16052;50.930;5.326;2022-08-19T03:12:55;20.40;99.90
28947;DHT22;16052;50.930;5.326;2022-08-19T03:15:20;20.40;99.90
28947;DHT22;16052;50.930;5.326;2022-08-19T03:17:46;20.50;99.90
28947;DHT22;16052;50.930;5.326;2022-08-19T03:20:11;20.50;99.90
28947;DHT22;16052;50.930;5.326;2022-08-19T03:22:37;20.40;99.90
28947;DHT22;16052;50.930;5.326;2022-08-19T03:25:03;20.50;99.90
28947;DHT22;16052;50.930;5.326;2022-08-19T03:27:29;20.50;99.90
28947;DHT22;16052;50.930;5.326;2022-08-19T03:29:55;20.50;99.90
28947;DHT22;16052;50.930;5.326;2022-08-19T03:32:20;20.60;99.90
28947;DHT22;16052;50.930;5.326;2022-08-19T03:34:47;20.50;99.90
28947;DHT22;16052;50.930;5.326;2022-08-19T03:37:13;20.60;99.90
28947;DHT22;16052;50.930;5.326;2022-08-19T03:39:40;20.60;99.90
28947;DHT22;16052;50.930;5.326;2022-08-19T03:42:08;20.70;99.50
28947;DHT22;16052;50.930;5.326;2022-08-19T03:44:34;20.70;98.50
28947;DHT22;16052;50.930;5.326;2022-08-19T03:47:02;20.80;97.90
28947;DHT22;16052;50.930;5.326;2022-08-19T03:49:30;20.70;98.10
28947;DHT22;16052;50.930;5.326;2022-08-19T03:51:57;20.70;98.20
28947;DHT22;16052;50.930;5.326;2022-08-19T03:54:26;20.70;98.90
28947;DHT22;16052;50.930;5.326;2022-08-19T03:56:54;20.60;99.40
28947;DHT22;16052;50.930;5.326;2022-08-19T03:59:27;20.50;99.90
28947;DHT22;16052;50.930;5.326;2022-08-19T04:01:54;20.50;99.90
28947;DHT22;16052;50.930;5.326;2022-08-19T04:04:21;20.50;99.90
28947;DHT22;16052;50.930;5.326;2022-08-19T04:06:47;20.50;99.90
28947;DHT22;16052;50.930;5.326;2022-08-19T04:09:12;20.40;99.90
28947;DHT22;16052;50.930;5.326;2022-08-19T04:11:42;20.50;99.90
28947;DHT22;16052;50.930;5.326;2022-08-19T04:14:11;20.60;99.90
28947;DHT22;16052;50.930;5.326;2022-08-19T04:16:37;20.70;98.80
28947;DHT22;16052;50.930;5.326;2022-08-19T04:19:04;20.50;99.90
28947;DHT22;16052;50.930;5.326;2022-08-19T04:21:30;20.70;98.60
28947;DHT22;16052;50.930;5.326;2022-08-19T04:23:56;20.70;98.40
28947;DHT22;16052;50.930;5.326;2022-08-19T04:26:25;20.80;95.30
28947;DHT22;16052;50.930;5.326;2022-08-19T04:28:51;20.80;94.90
28947;DHT22;16052;50.930;5.326;2022-08-19T04:31:23;20.80;94.80
28947;DHT22;16052;50.930;5.326;2022-08-19T04:34:04;20.80;94.20
28947;DHT22;16052;50.930;5.326;2022-08-19T04:36:32;20.70;95.60
28947;DHT22;16052;50.930;5.326;2022-08-19T04:39:01;20.70;96.50
28947;DHT22;16052;50.930;5.326;2022-08-19T04:41:27;20.60;97.00
28947;DHT22;16052;50.930;5.326;2022-08-19T04:44:11;20.50;97.50
28947;DHT22;16052;50.930;5.326;2022-08-19T04:46:37;20.40;98.30
28947;DHT22;16052;50.930;5.326;2022-08-19T04:49:04;20.60;95.70
28947;DHT22;16052;50.930;5.326;2022-08-19T04:51:34;20.50;96.10
28947;DHT22;16052;50.930;5.326;2022-08-19T04:54:01;20.50;98.10
28947;DHT22;16052;50.930;5.326;2022-08-19T04:56:27;20.60;95.40
28947;DHT22;16052;50.930;5.326;2022-08-19T04:58:54;20.70;94.70
28947;DHT22;16052;50.930;5.326;2022-08-19T05:01:26;20.60;94.10
28947;DHT22;16052;50.930;5.326;2022-08-19T05:03:54;20.80;92.50
28947;DHT22;16052;50.930;5.326;2022-08-19T05:06:21;20.90;91.30
28947;DHT22;16052;50.930;5.326;2022-08-19T05:08:48;20.80;92.70
28947;DHT22;16052;50.930;5.326;2022-08-19T05:11:18;20.90;92.00
28947;DHT22;16052;50.930;5.326;2022-08-19T05:13:45;21.00;90.50
28947;DHT22;16052;50.930;5.326;2022-08-19T05:16:12;21.00;88.40
28947;DHT22;16052;50.930;5.326;2022-08-19T05:18:39;21.00;90.50
28947;DHT22;16052;50.930;5.326;2022-08-19T05:21:24;20.70;93.70
28947;DHT22;16052;50.930;5.326;2022-08-19T05:24:09;20.20;98.90
28947;DHT22;16052;50.930;5.326;2022-08-19T05:26:36;20.00;99.90
28947;DHT22;16052;50.930;5.326;2022-08-19T05:29:03;20.10;99.90
28947;DHT22;16052;50.930;5.326;2022-08-19T05:31:29;20.00;99.90
28947;DHT22;16052;50.930;5.326;2022-08-19T05:33:55;20.10;99.90
28947;DHT22;16052;50.930;5.326;2022-08-19T05:36:27;20.20;99.90
28947;DHT22;16052;50.930;5.326;2022-08-19T05:38:53;20.20;99.90
28947;DHT22;16052;50.930;5.326;2022-08-19T05:41:19;20.10;99.90
28947;DHT22;16052;50.930;5.326;2022-08-19T05:43:45;20.10;99.90
28947;DHT22;16052;50.930;5.326;2022-08-19T05:46:19;19.90;99.90
28947;DHT22;16052;50.930;5.326;2022-08-19T05:48:46;20.00;99.90
28947;DHT22;16052;50.930;5.326;2022-08-19T05:51:12;20.00;99.90
28947;DHT22;16052;50.930;5.326;2022-08-19T05:53:38;20.00;99.90
28947;DHT22;16052;50.930;5.326;2022-08-19T05:56:06;20.00;99.90
28947;DHT22;16052;50.930;5.326;2022-08-19T05:58:32;19.70;99.90
28947;DHT22;16052;50.930;5.326;2022-08-19T06:00:58;19.60;99.90
28947;DHT22;16052;50.930;5.326;2022-08-19T06:03:30;19.60;99.90
28947;DHT22;16052;50.930;5.326;2022-08-19T06:05:55;19.60;99.90
28947;DHT22;16052;50.930;5.326;2022-08-19T06:08:21;19.60;99.90
28947;DHT22;16052;50.930;5.326;2022-08-19T06:10:47;19.60;99.90
28947;DHT22;16052;50.930;5.326;2022-08-19T06:13:12;19.70;99.90
28947;DHT22;16052;50.930;5.326;2022-08-19T06:15:38;19.60;99.90
28947;DHT22;16052;50.930;5.326;2022-08-19T06:18:03;19.60;99.90
28947;DHT22;16052;50.930;5.326;2022-08-19T06:20:29;19.50;99.90
28947;DHT22;16052;50.930;5.326;2022-08-19T06:22:55;19.50;99.90
28947;DHT22;16052;50.930;5.326;2022-08-19T06:25:21;19.60;99.90
28947;DHT22;16052;50.930;5.326;2022-08-19T06:27:46;19.60;99.90
28947;DHT22;16052;50.930;5.326;2022-08-19T06:30:12;19.50;99.90
28947;DHT22;16052;50.930;5.326;2022-08-19T06:32:38;19.60;99.90
28947;DHT22;16052;50.930;5.326;2022-08-19T06:35:04;19.50;99.90
28947;DHT22;16052;50.930;5.326;2022-08-19T06:37:30;19.50;99.90
28947;DHT22;16052;50.930;5.326;2022-08-19T06:39:56;19.40;99.90
28947;DHT22;16052;50.930;5.326;2022-08-19T06:42:22;19.50;99.90
28947;DHT22;16052;50.930;5.326;2022-08-19T06:44:51;19.40;99.90
28947;DHT22;16052;50.930;5.326;2022-08-19T06:47:19;19.40;99.90
28947;DHT22;16052;50.930;5.326;2022-08-19T06:49:45;19.30;99.90
28947;DHT22;16052;50.930;5.326;2022-08-19T06:52:11;19.30;99.90
28947;DHT22;16052;50.930;5.326;2022-08-19T06:54:41;19.30;99.90
28947;DHT22;16052;50.930;5.326;2022-08-19T06:57:07;19.20;99.90
28947;DHT22;16052;50.930;5.326;2022-08-19T06:59:38;19.20;99.90
28947;DHT22;16052;50.930;5.326;2022-08-19T07:02:06;19.10;99.90
28947;DHT22;16052;50.930;5.326;2022-08-19T07:04:34;19.10;99.90
28947;DHT22;16052;50.930;5.326;2022-08-19T07:07:06;19.00;99.90
28947;DHT22;16052;50.930;5.326;2022-08-19T07:09:34;19.10;99.90
28947;DHT22;16052;50.930;5.326;2022-08-19T07:12:04;19.30;99.90
28947;DHT22;16052;50.930;5.326;2022-08-19T07:14:30;19.40;99.90
28947;DHT22;16052;50.930;5.326;2022-08-19T07:16:56;19.30;99.90
28947;DHT22;16052;50.930;5.326;2022-08-19T07:19:26;19.40;99.90
28947;DHT22;16052;50.930;5.326;2022-08-19T07:21:54;19.50;99.90
28947;DHT22;16052;50.930;5.326;2022-08-19T07:24:22;19.50;99.90
28947;DHT22;16052;50.930;5.326;2022-08-19T07:26:49;19.40;99.90
28947;DHT22;16052;50.930;5.326;2022-08-19T07:29:16;19.30;99.90
28947;DHT22;16052;50.930;5.326;2022-08-19T07:31:42;19.30;99.90
28947;DHT22;16052;50.930;5.326;2022-08-19T07:34:09;19.30;99.90
28947;DHT22;16052;50.930;5.326;2022-08-19T07:36:39;19.40;99.90
28947;DHT22;16052;50.930;5.326;2022-08-19T07:39:09;19.40;99.90
28947;DHT22;16052;50.930;5.326;2022-08-19T07:41:35;19.50;99.90
28947;DHT22;16052;50.930;5.326;2022-08-19T07:44:03;19.50;99.90
28947;DHT22;16052;50.930;5.326;2022-08-19T07:46:33;19.60;99.90
28947;DHT22;16052;50.930;5.326;2022-08-19T07:48:59;19.60;99.90
28947;DHT22;16052;50.930;5.326;2022-08-19T07:51:27;19.70;99.90
28947;DHT22;16052;50.930;5.326;2022-08-19T07:53:52;19.70;99.90
28947;DHT22;16052;50.930;5.326;2022-08-19T07:56:20;19.80;99.90
28947;DHT22;16052;50.930;5.326;2022-08-19T07:58:48;19.80;99.90
28947;DHT22;16052;50.930;5.326;2022-08-19T08:01:20;19.80;99.90
28947;DHT22;16052;50.930;5.326;2022-08-19T08:03:48;19.90;99.90
28947;DHT22;16052;50.930;5.326;2022-08-19T08:06:32;19.90;99.90
28947;DHT22;16052;50.930;5.326;2022-08-19T08:09:20;19.80;99.90
28947;DHT22;16052;50.930;5.326;2022-08-19T08:11:57;19.60;99.90
28947;DHT22;16052;50.930;5.326;2022-08-19T08:14:27;19.50;99.90
28947;DHT22;16052;50.930;5.326;2022-08-19T08:16:53;19.50;99.90
28947;DHT22;16052;50.930;5.326;2022-08-19T08:19:21;19.50;99.90
28947;DHT22;16052;50.930;5.326;2022-08-19T08:21:51;19.70;99.90
28947;DHT22;16052;50.930;5.326;2022-08-19T08:24:18;19.80;99.90
28947;DHT22;16052;50.930;5.326;2022-08-19T08:26:44;19.90;99.90
28947;DHT22;16052;50.930;5.326;2022-08-19T08:29:11;20.00;99.90
28947;DHT22;16052;50.930;5.326;2022-08-19T08:31:41;20.20;99.90
28947;DHT22;16052;50.930;5.326;2022-08-19T08:34:08;20.20;99.90
28947;DHT22;16052;50.930;5.326;2022-08-19T08:36:40;20.40;99.90
28947;DHT22;16052;50.930;5.326;2022-08-19T08:39:13;20.40;99.90
28947;DHT22;16052;50.930;5.326;2022-08-19T08:44:28;20.60;99.90
28947;DHT22;16052;50.930;5.326;2022-08-19T08:47:01;20.70;99.90
28947;DHT22;16052;50.930;5.326;2022-08-19T08:52:48;20.90;95.80
28947;DHT22;16052;50.930;5.326;2022-08-19T08:55:21;21.00;93.20
28947;DHT22;16052;50.930;5.326;2022-08-19T09:00:23;21.00;92.70
28947;DHT22;16052;50.930;5.326;2022-08-19T09:02:50;21.20;90.40
28947;DHT22;16052;50.930;5.326;2022-08-19T09:05:17;21.20;84.20
28947;DHT22;16052;50.930;5.326;2022-08-19T09:08:04;21.30;91.40
28947;DHT22;16052;50.930;5.326;2022-08-19T09:10:55;21.20;81.40
28947;DHT22;16052;50.930;5.326;2022-08-19T09:13:51;21.20;85.90
28947;DHT22;16052;50.930;5.326;2022-08-19T09:16:22;21.10;86.30
28947;DHT22;16052;50.930;5.326;2022-08-19T09:18:53;21.00;83.90
28947;DHT22;16052;50.930;5.326;2022-08-19T09:21:21;21.00;85.90
28947;DHT22;16052;50.930;5.326;2022-08-19T09:23:48;21.10;82.40
28947;DHT22;16052;50.930;5.326;2022-08-19T09:26:20;21.30;79.10
28947;DHT22;16052;50.930;5.326;2022-08-19T09:28:47;21.40;73.20
28947;DHT22;16052;50.930;5.326;2022-08-19T09:31:15;21.50;69.40
28947;DHT22;16052;50.930;5.326;2022-08-19T09:33:42;21.60;68.30
28947;DHT22;16052;50.930;5.326;2022-08-19T09:36:12;21.60;59.50
28947;DHT22;16052;50.930;5.326;2022-08-19T09:38:39;21.70;59.90
28947;DHT22;16052;50.930;5.326;2022-08-19T09:41:12;21.80;59.30
28947;DHT22;16052;50.930;5.326;2022-08-19T09:43:39;22.00;54.20
28947;DHT22;16052;50.930;5.326;2022-08-19T09:46:06;22.10;49.70
28947;DHT22;16052;50.930;5.326;2022-08-19T09:48:33;22.10;45.10
28947;DHT22;16052;50.930;5.326;2022-08-19T09:51:10;22.20;41.70
28947;DHT22;16052;50.930;5.326;2022-08-19T09:53:38;22.30;28.70
28947;DHT22;16052;50.930;5.326;2022-08-19T09:56:05;22.20;32.80
28947;DHT22;16052;50.930;5.326;2022-08-19T09:58:33;22.30;32.60
28947;DHT22;16052;50.930;5.326;2022-08-19T10:01:00;22.30;26.70
28947;DHT22;16052;50.930;5.326;2022-08-19T10:03:27;22.40;18.20
28947;DHT22;16052;50.930;5.326;2022-08-19T10:05:54;22.50;13.60
28947;DHT22;16052;50.930;5.326;2022-08-19T10:08:27;22.60;8.00
28947;DHT22;16052;50.930;5.326;2022-08-19T10:10:54;22.80;1.10
28947;DHT22;16052;50.930;5.326;2022-08-19T10:13:23;23.00;1.00
28947;DHT22;16052;50.930;5.326;2022-08-19T10:15:52;23.00;1.10
28947;DHT22;16052;50.930;5.326;2022-08-19T10:18:20;23.10;1.70
28947;DHT22;16052;50.930;5.326;2022-08-19T10:20:47;23.10;3.90
28947;DHT22;16052;50.930;5.326;2022-08-19T10:23:16;23.10;1.00
28947;DHT22;16052;50.930;5.326;2022-08-19T10:25:42;23.20;1.00
28947;DHT22;16052;50.930;5.326;2022-08-19T10:28:08;23.20;1.00
28947;DHT22;16052;50.930;5.326;2022-08-19T10:30:38;23.10;1.00
28947;DHT22;16052;50.930;5.326;2022-08-19T10:33:04;23.10;2.50
28947;DHT22;16052;50.930;5.326;2022-08-19T10:35:32;23.10;5.90
28947;DHT22;16052;50.930;5.326;2022-08-19T10:37:58;23.20;9.00
28947;DHT22;16052;50.930;5.326;2022-08-19T10:40:25;23.30;8.00
28947;DHT22;16052;50.930;5.326;2022-08-19T10:42:52;23.20;7.00
28947;DHT22;16052;50.930;5.326;2022-08-19T10:45:18;23.10;7.90
28947;DHT22;16052;50.930;5.326;2022-08-19T10:47:44;23.10;10.00
28947;DHT22;16052;50.930;5.326;2022-08-19T10:50:10;23.30;7.40
28947;DHT22;16052;50.930;5.326;2022-08-19T10:52:54;23.40;8.20
28947;DHT22;16052;50.930;5.326;2022-08-19T10:55:22;23.50;2.00
28947;DHT22;16052;50.930;5.326;2022-08-19T10:58:14;23.30;4.50
28947;DHT22;16052;50.930;5.326;2022-08-19T11:00:41;23.30;3.00
28947;DHT22;16052;50.930;5.326;2022-08-19T11:03:08;23.30;1.90
28947;DHT22;16052;50.930;5.326;2022-08-19T11:05:35;23.40;1.00
28947;DHT22;16052;50.930;5.326;2022-08-19T11:08:04;23.40;4.70
28947;DHT22;16052;50.930;5.326;2022-08-19T11:10:30;23.40;2.70
28947;DHT22;16052;50.930;5.326;2022-08-19T11:12:56;23.40;4.70
28947;DHT22;16052;50.930;5.326;2022-08-19T11:15:22;23.40;1.00
28947;DHT22;16052;50.930;5.326;2022-08-19T11:17:47;23.50;1.00
28947;DHT22;16052;50.930;5.326;2022-08-19T11:20:14;23.60;1.00
28947;DHT22;16052;50.930;5.326;2022-08-19T11:22:41;23.60;1.00
28947;DHT22;16052;50.930;5.326;2022-08-19T11:25:09;23.40;3.70
28947;DHT22;16052;50.930;5.326;2022-08-19T11:27:40;23.20;9.90
28947;DHT22;16052;50.930;5.326;2022-08-19T11:30:11;23.10;14.10
28947;DHT22;16052;50.930;5.326;2022-08-19T11:32:37;23.20;16.20
28947;DHT22;16052;50.930;5.326;2022-08-19T11:35:03;23.30;19.40
28947;DHT22;16052;50.930;5.326;2022-08-19T11:37:29;23.60;6.40
28947;DHT22;16052;50.930;5.326;2022-08-19T11:39:55;23.80;6.40
28947;DHT22;16052;50.930;5.326;2022-08-19T11:42:20;23.80;1.00
28947;DHT22;16052;50.930;5.326;2022-08-19T11:45:05;23.70;3.40
28947;DHT22;16052;50.930;5.326;2022-08-19T11:47:31;23.70;10.20
28947;DHT22;16052;50.930;5.326;2022-08-19T11:49:56;23.80;7.30
28947;DHT22;16052;50.930;5.326;2022-08-19T11:52:22;23.70;9.30
28947;DHT22;16052;50.930;5.326;2022-08-19T11:54:48;23.70;9.60
28947;DHT22;16052;50.930;5.326;2022-08-19T11:57:14;23.70;17.40
28947;DHT22;16052;50.930;5.326;2022-08-19T11:59:47;23.80;12.70
28947;DHT22;16052;50.930;5.326;2022-08-19T12:02:13;23.90;11.20
28947;DHT22;16052;50.930;5.326;2022-08-19T12:04:40;24.00;9.40
28947;DHT22;16052;50.930;5.326;2022-08-19T12:07:06;24.00;11.40
28947;DHT22;16052;50.930;5.326;2022-08-19T12:09:31;24.00;11.00
28947;DHT22;16052;50.930;5.326;2022-08-19T12:11:59;24.00;13.20
28947;DHT22;16052;50.930;5.326;2022-08-19T12:14:27;24.00;15.10
28947;DHT22;16052;50.930;5.326;2022-08-19T12:16:55;24.00;13.10
28947;DHT22;16052;50.930;5.326;2022-08-19T12:19:21;24.00;10.80
28947;DHT22;16052;50.930;5.326;2022-08-19T12:21:46;24.00;14.10
28947;DHT22;16052;50.930;5.326;2022-08-19T12:24:13;24.00;14.30
28947;DHT22;16052;50.930;5.326;2022-08-19T12:26:39;23.90;18.20
28947;DHT22;16052;50.930;5.326;2022-08-19T12:29:04;23.80;18.00
28947;DHT22;16052;50.930;5.326;2022-08-19T12:31:30;23.80;19.80
28947;DHT22;16052;50.930;5.326;2022-08-19T12:33:57;23.90;21.30
28947;DHT22;16052;50.930;5.326;2022-08-19T12:36:23;24.00;15.90
28947;DHT22;16052;50.930;5.326;2022-08-19T12:38:50;23.90;20.10
28947;DHT22;16052;50.930;5.326;2022-08-19T12:41:17;23.90;23.60
28947;DHT22;16052;50.930;5.326;2022-08-19T12:43:44;23.90;25.40
28947;DHT22;16052;50.930;5.326;2022-08-19T12:46:11;23.90;27.70
28947;DHT22;16052;50.930;5.326;2022-08-19T12:48:37;23.90;26.90
28947;DHT22;16052;50.930;5.326;2022-08-19T12:51:11;23.80;21.20
28947;DHT22;16052;50.930;5.326;2022-08-19T12:53:38;23.70;29.40
28947;DHT22;16052;50.930;5.326;2022-08-19T12:56:04;23.80;31.40
28947;DHT22;16052;50.930;5.326;2022-08-19T12:58:31;23.80;29.10
28947;DHT22;16052;50.930;5.326;2022-08-19T13:01:04;23.80;32.70
28947;DHT22;16052;50.930;5.326;2022-08-19T13:03:30;23.70;31.90
28947;DHT22;16052;50.930;5.326;2022-08-19T13:05:57;23.70;34.70
28947;DHT22;16052;50.930;5.326;2022-08-19T13:08:24;23.70;31.30
28947;DHT22;16052;50.930;5.326;2022-08-19T13:10:52;23.70;29.30
28947;DHT22;16052;50.930;5.326;2022-08-19T13:13:18;23.70;30.00
28947;DHT22;16052;50.930;5.326;2022-08-19T13:15:44;23.70;35.50
28947;DHT22;16052;50.930;5.326;2022-08-19T13:18:11;23.90;32.20
28947;DHT22;16052;50.930;5.326;2022-08-19T13:20:38;23.90;36.60
28947;DHT22;16052;50.930;5.326;2022-08-19T13:23:07;23.90;34.70
28947;DHT22;16052;50.930;5.326;2022-08-19T13:25:34;23.80;43.10
28947;DHT22;16052;50.930;5.326;2022-08-19T13:28:01;23.60;46.90
28947;DHT22;16052;50.930;5.326;2022-08-19T13:30:27;23.50;53.10
28947;DHT22;16052;50.930;5.326;2022-08-19T13:33:11;23.50;53.30
28947;DHT22;16052;50.930;5.326;2022-08-19T13:35:42;23.50;43.60
28947;DHT22;16052;50.930;5.326;2022-08-19T13:38:08;23.50;49.40
28947;DHT22;16052;50.930;5.326;2022-08-19T13:40:36;23.50;51.70
28947;DHT22;16052;50.930;5.326;2022-08-19T13:43:03;23.50;52.80
28947;DHT22;16052;50.930;5.326;2022-08-19T13:45:31;23.40;55.10
28947;DHT22;16052;50.930;5.326;2022-08-19T13:48:00;23.40;56.50
28947;DHT22;16052;50.930;5.326;2022-08-19T13:50:28;23.40;54.70
28947;DHT22;16052;50.930;5.326;2022-08-19T13:52:55;23.40;54.50
28947;DHT22;16052;50.930;5.326;2022-08-19T13:55:24;23.30;52.90
28947;DHT22;16052;50.930;5.326;2022-08-19T13:57:54;23.30;55.20
28947;DHT22;16052;50.930;5.326;2022-08-19T14:00:22;23.40;54.30
28947;DHT22;16052;50.930;5.326;2022-08-19T14:02:52;23.40;56.00
28947;DHT22;16052;50.930;5.326;2022-08-19T14:05:19;23.40;57.40
28947;DHT22;16052;50.930;5.326;2022-08-19T14:07:45;23.50;58.80
28947;DHT22;16052;50.930;5.326;2022-08-19T14:10:12;23.70;53.50
28947;DHT22;16052;50.930;5.326;2022-08-19T14:12:39;23.80;55.30
28947;DHT22;16052;50.930;5.326;2022-08-19T14:15:07;24.00;50.40
28947;DHT22;16052;50.930;5.326;2022-08-19T14:17:33;24.10;44.60
28947;DHT22;16052;50.930;5.326;2022-08-19T14:20:02;24.20;44.60
28947;DHT22;16052;50.930;5.326;2022-08-19T14:22:29;24.30;34.70
28947;DHT22;16052;50.930;5.326;2022-08-19T14:24:57;24.50;32.40
28947;DHT22;16052;50.930;5.326;2022-08-19T14:27:23;24.70;30.30
28947;DHT22;16052;50.930;5.326;2022-08-19T14:29:51;24.80;21.90
28947;DHT22;16052;50.930;5.326;2022-08-19T14:32:16;24.80;19.60
28947;DHT22;16052;50.930;5.326;2022-08-19T14:34:42;24.70;25.00
28947;DHT22;16052;50.930;5.326;2022-08-19T14:37:12;24.90;18.00
28947;DHT22;16052;50.930;5.326;2022-08-19T14:39:42;25.00;4.60
28947;DHT22;16052;50.930;5.326;2022-08-19T14:42:09;25.00;11.80
28947;DHT22;16052;50.930;5.326;2022-08-19T14:44:35;24.90;14.80
28947;DHT22;16052;50.930;5.326;2022-08-19T14:47:02;24.80;18.30
28947;DHT22;16052;50.930;5.326;2022-08-19T14:49:27;24.90;19.50
28947;DHT22;16052;50.930;5.326;2022-08-19T14:51:53;24.90;13.00
28947;DHT22;16052;50.930;5.326;2022-08-19T14:54:19;24.80;10.60
28947;DHT22;16052;50.930;5.326;2022-08-19T14:56:45;24.70;13.60
28947;DHT22;16052;50.930;5.326;2022-08-19T14:59:11;24.90;15.20
28947;DHT22;16052;50.930;5.326;2022-08-19T15:01:37;25.00;13.00
28947;DHT22;16052;50.930;5.326;2022-08-19T15:04:03;25.10;7.50
28947;DHT22;16052;50.930;5.326;2022-08-19T15:06:29;25.20;4.40
28947;DHT22;16052;50.930;5.326;2022-08-19T15:08:55;25.00;3.00
28947;DHT22;16052;50.930;5.326;2022-08-19T15:11:24;24.90;6.30
28947;DHT22;16052;50.930;5.326;2022-08-19T15:13:50;24.90;7.30
28947;DHT22;16052;50.930;5.326;2022-08-19T15:16:17;24.90;5.70
28947;DHT22;16052;50.930;5.326;2022-08-19T15:18:44;24.90;6.60
28947;DHT22;16052;50.930;5.326;2022-08-19T15:21:11;24.70;12.20
28947;DHT22;16052;50.930;5.326;2022-08-19T15:23:38;24.60;15.80
28947;DHT22;16052;50.930;5.326;2022-08-19T15:26:04;24.50;15.70
28947;DHT22;16052;50.930;5.326;2022-08-19T15:28:32;24.50;13.70
28947;DHT22;16052;50.930;5.326;2022-08-19T15:30:58;24.70;10.50
28947;DHT22;16052;50.930;5.326;2022-08-19T15:33:24;24.70;10.40
28947;DHT22;16052;50.930;5.326;2022-08-19T15:35:50;24.70;13.80
28947;DHT22;16052;50.930;5.326;2022-08-19T15:38:17;24.80;9.50
28947;DHT22;16052;50.930;5.326;2022-08-19T15:40:47;24.70;11.40
28947;DHT22;16052;50.930;5.326;2022-08-19T15:43:14;24.70;13.70
28947;DHT22;16052;50.930;5.326;2022-08-19T15:45:43;24.60;15.60
28947;DHT22;16052;50.930;5.326;2022-08-19T15:48:08;24.70;20.00